Time;durP1;ratioP1;P1;durP2;ratioP2;P2;SDS_P1;SDS_P2;PMS_P1;PMS_P2;Temp;Humidity;BMP_temperature;BMP_pressure;BME280_temperature;BME280_humidity;BME280_pressure;Samples;Min_cycle;Max_cycle;Signal;HPM_P1;HPM_P2
2022/07/02 00:02:58;;;;;;;1.48;1.20;;;;;;;13.98;100.00;101888.09;6223468;28;20057;-77
2022/07/02 00:06:02;;;;;;;1.58;0.98;;;;;;;13.96;100.00;101890.84;6222565;28;20066;-78
2022/07/02 00:09:04;;;;;;;6.85;1.20;;;;;;;13.93;100.00;101898.91;6222955;28;20057;-76
2022/07/02 00:12:06;;;;;;;1.30;1.10;;;;;;;13.87;100.00;101898.38;6222589;28;20046;-77
2022/07/02 00:15:09;;;;;;;5.28;1.33;;;;;;;13.87;100.00;101893.06;6222548;28;20053;-77
2022/07/02 00:18:12;;;;;;;2.75;1.42;;;;;;;13.82;100.00;101895.94;6222781;28;20042;-77
2022/07/02 00:21:14;;;;;;;1.70;1.20;;;;;;;13.82;100.00;101895.94;6221719;28;20056;-78
2022/07/02 00:24:15;;;;;;;2.10;1.40;;;;;;;13.79;100.00;101898.72;6222584;28;20057;-77
2022/07/02 00:27:19;;;;;;;2.58;1.38;;;;;;;13.74;100.00;101897.25;6222410;28;20056;-77
2022/07/02 00:30:21;;;;;;;2.38;0.95;;;;;;;13.73;100.00;101909.59;6222477;28;20054;-78
2022/07/02 00:33:25;;;;;;;1.27;1.17;;;;;;;13.69;100.00;101916.81;6222065;28;20053;-78
2022/07/02 00:36:27;;;;;;;1.92;1.30;;;;;;;13.67;100.00;101910.75;6222395;28;20050;-77
2022/07/02 00:39:28;;;;;;;1.35;1.08;;;;;;;13.68;100.00;101915.09;6222000;28;20054;-77
2022/07/02 00:42:31;;;;;;;1.40;1.20;;;;;;;13.67;100.00;101909.88;6222427;28;20066;-78
2022/07/02 00:45:34;;;;;;;2.80;1.23;;;;;;;13.66;100.00;101909.00;6221902;28;20053;-77
2022/07/02 00:48:38;;;;;;;1.95;1.30;;;;;;;13.65;100.00;101907.31;6222406;28;20046;-77
2022/07/02 00:51:39;;;;;;;1.30;1.20;;;;;;;13.69;100.00;101908.88;6221834;28;20049;-78
2022/07/02 00:54:41;;;;;;;3.05;1.60;;;;;;;13.73;100.00;101909.59;6222266;28;20414;-77
2022/07/02 00:57:45;;;;;;;1.98;1.77;;;;;;;13.69;100.00;101908.88;6222115;28;20042;-78
2022/07/02 01:00:47;;;;;;;2.40;2.03;;;;;;;13.63;100.00;101906.53;6222174;28;20056;-77
2022/07/02 01:03:51;;;;;;;2.63;1.80;;;;;;;13.66;100.00;101910.81;6222131;28;20050;-77
2022/07/02 01:06:54;;;;;;;2.20;2.00;;;;;;;13.73;100.00;101906.94;6222079;28;20050;-77
2022/07/02 01:13:18;;;;;;;2.90;1.60;;;;;;;13.68;100.00;101917.75;6222312;28;20050;-77
2022/07/02 01:16:20;;;;;;;8.93;1.70;;;;;;;13.62;100.00;101914.50;6221828;28;20490;-76
2022/07/02 01:19:24;;;;;;;1.40;1.30;;;;;;;13.57;100.00;101909.44;6221837;28;20053;-77
2022/07/02 01:22:33;;;;;;;2.30;2.00;;;;;;;13.51;100.00;101914.19;6221712;28;20049;-76
2022/07/02 01:25:35;;;;;;;6.13;1.88;;;;;;;13.47;100.00;101915.25;6221474;28;20067;-78
2022/07/02 01:28:36;;;;;;;1.52;1.20;;;;;;;13.40;100.00;101909.41;6221849;28;20049;-77
2022/07/02 01:31:37;;;;;;;2.17;1.48;;;;;;;13.37;100.00;101914.81;6224449;28;20616;-77
2022/07/02 01:34:41;;;;;;;1.77;1.67;;;;;;;13.35;100.00;101917.53;6226378;28;20074;-78
2022/07/02 01:37:44;;;;;;;1.92;1.65;;;;;;;13.32;100.00;101911.53;6226054;28;20444;-77
2022/07/02 01:40:45;;;;;;;2.08;1.77;;;;;;;13.29;100.00;101911.69;6226033;28;20053;-77
2022/07/02 01:43:46;;;;;;;2.00;1.45;;;;;;;13.29;100.00;101916.97;6225936;28;20057;-77
2022/07/02 01:46:48;;;;;;;3.42;1.50;;;;;;;13.26;100.00;101925.84;6225858;28;20057;-77
2022/07/02 01:49:49;;;;;;;2.08;1.80;;;;;;;13.21;100.00;101915.47;6225744;28;20533;-78
2022/07/02 01:52:56;;;;;;;1.70;1.45;;;;;;;13.19;100.00;101919.97;6226108;28;20057;-77
2022/07/02 01:55:57;;;;;;;3.28;1.73;;;;;;;13.13;100.00;101927.34;6225834;28;20501;-77
2022/07/02 01:58:58;;;;;;;1.95;1.40;;;;;;;13.08;100.00;101924.03;6225755;28;20056;-77
2022/07/02 02:02:00;;;;;;;3.90;1.40;;;;;;;13.07;100.00;101930.22;6225620;28;20060;-78
2022/07/02 02:05:01;;;;;;;2.60;1.77;;;;;;;13.04;100.00;101933.03;6225772;28;20053;-77
2022/07/02 02:08:04;;;;;;;2.08;1.65;;;;;;;13.04;100.00;101930.38;6225708;28;20052;-78
2022/07/02 02:11:05;;;;;;;1.73;1.23;;;;;;;13.00;100.00;101927.03;6225149;28;20050;-78
2022/07/02 02:14:06;;;;;;;2.67;1.40;;;;;;;12.97;100.00;101921.03;6225492;28;20050;-79
2022/07/02 02:17:08;;;;;;;1.95;1.58;;;;;;;12.91;100.00;101922.16;6225490;28;20054;-77
2022/07/02 02:20:10;;;;;;;2.20;1.27;;;;;;;12.87;100.00;101921.44;6225326;28;20060;-77
2022/07/02 02:23:13;;;;;;;1.90;1.48;;;;;;;12.86;100.00;101929.41;6225449;28;20045;-77
2022/07/02 02:26:14;;;;;;;3.38;1.65;;;;;;;12.85;100.00;101933.84;6225034;28;20053;-78
2022/07/02 02:29:16;;;;;;;1.38;1.27;;;;;;;12.80;100.00;101934.94;6225731;28;20042;-78
2022/07/02 02:32:17;;;;;;;1.38;1.27;;;;;;;12.79;100.00;101928.81;6222681;28;20058;-79
2022/07/02 02:35:19;;;;;;;3.72;1.55;;;;;;;12.79;100.00;101923.53;6225012;28;20050;-78
2022/07/02 02:38:21;;;;;;;2.65;1.33;;;;;;;12.79;100.00;101925.31;6224955;28;20049;-78
2022/07/02 02:41:23;;;;;;;2.45;1.48;;;;;;;12.75;100.00;101929.00;6224181;28;20053;-77
2022/07/02 02:44:24;;;;;;;4.97;1.85;;;;;;;12.74;100.00;101917.59;6224194;28;20050;-78
2022/07/02 02:47:25;;;;;;;1.50;1.40;;;;;;;12.74;100.00;101922.88;6224981;28;20053;-77
2022/07/02 02:50:27;;;;;;;1.85;1.42;;;;;;;12.73;100.00;101921.19;6224379;28;20604;-77
2022/07/02 02:53:29;;;;;;;2.60;1.65;;;;;;;12.69;100.00;101931.00;6224820;28;20057;-77
2022/07/02 02:56:31;;;;;;;2.50;1.88;;;;;;;12.67;100.00;101934.59;6224407;28;20050;-77
2022/07/02 02:59:32;;;;;;;5.15;2.50;;;;;;;12.64;100.00;101942.69;6224106;28;20046;-78
2022/07/02 03:02:34;;;;;;;1.80;1.70;;;;;;;12.63;100.00;101941.81;6224345;28;20050;-77
2022/07/02 03:05:35;;;;;;;2.85;1.40;;;;;;;12.61;100.00;101937.53;6224020;28;20494;-78
2022/07/02 03:08:38;;;;;;;6.90;1.70;;;;;;;12.60;100.00;101941.09;6224599;28;20050;-77
2022/07/02 03:11:39;;;;;;;2.22;1.70;;;;;;;12.58;100.00;101937.63;6223745;28;20046;-77
2022/07/02 03:14:40;;;;;;;2.33;1.70;;;;;;;12.59;100.00;101942.88;6224080;28;20509;-78
2022/07/02 03:17:42;;;;;;;1.73;1.48;;;;;;;12.59;100.00;101949.94;6223905;28;20054;-78
2022/07/02 03:20:43;;;;;;;2.55;1.70;;;;;;;12.60;100.00;101962.19;6224105;28;20045;-78
2022/07/02 03:23:46;;;;;;;2.78;2.10;;;;;;;12.58;100.00;101964.91;6224067;28;20053;-77
2022/07/02 03:26:47;;;;;;;2.38;2.03;;;;;;;12.58;100.00;101972.81;6223770;28;20050;-78
2022/07/02 03:29:48;;;;;;;1.88;1.45;;;;;;;12.57;100.00;101968.44;6223834;28;20053;-78
2022/07/02 03:32:49;;;;;;;1.70;1.58;;;;;;;12.55;100.00;101966.81;6223628;28;20050;-78
2022/07/02 03:35:51;;;;;;;6.43;1.90;;;;;;;12.51;100.00;101973.13;6223680;28;20058;-77
2022/07/02 03:38:54;;;;;;;2.92;1.33;;;;;;;12.49;100.00;101970.56;6223395;28;20041;-78
2022/07/02 03:41:55;;;;;;;2.33;1.85;;;;;;;12.48;100.00;101970.59;6223129;28;20061;-77
2022/07/02 03:44:56;;;;;;;1.90;1.38;;;;;;;12.47;100.00;101980.28;6220392;28;20049;-78
2022/07/02 03:47:57;;;;;;;3.95;1.63;;;;;;;12.46;100.00;101977.72;6208263;28;20046;-78
2022/07/02 03:50:59;;;;;;;1.42;1.33;;;;;;;12.49;100.00;101985.50;6217721;28;20057;-77
2022/07/02 03:54:01;;;;;;;2.30;1.83;;;;;;;12.51;100.00;101981.88;6223389;28;20056;-78
2022/07/02 03:57:03;;;;;;;4.63;1.50;;;;;;;12.53;100.00;101979.19;6223076;28;20046;-78
2022/07/02 04:00:06;;;;;;;1.60;1.40;;;;;;;12.56;100.00;101984.34;6223203;28;20042;-79
2022/07/02 04:03:07;;;;;;;2.17;1.38;;;;;;;12.56;100.00;101984.34;6223270;28;20053;-78
2022/07/02 04:06:08;;;;;;;1.70;1.33;;;;;;;12.58;100.00;101993.91;6222825;28;20518;-79
2022/07/02 04:09:11;;;;;;;1.60;1.40;;;;;;;12.59;100.00;101998.25;6223107;28;20049;-77
2022/07/02 04:12:13;;;;;;;1.80;1.13;;;;;;;12.62;100.00;101998.09;6222399;28;20060;-77
2022/07/02 04:15:14;;;;;;;1.60;1.17;;;;;;;12.65;100.00;101997.97;6222561;28;20060;-77
2022/07/02 04:18:15;;;;;;;1.50;1.30;;;;;;;12.70;100.00;102005.72;6222645;28;20049;-77
2022/07/02 04:21:17;;;;;;;1.92;1.42;;;;;;;12.70;100.00;102001.28;6222894;28;20054;-79
2022/07/02 04:24:21;;;;;;;1.40;1.15;;;;;;;12.78;100.00;102003.59;6222541;28;20054;-78
2022/07/02 04:27:22;;;;;;;2.17;1.50;;;;;;;12.85;100.00;102007.72;6222581;28;20434;-79
2022/07/02 04:30:23;;;;;;;1.27;1.08;;;;;;;12.91;100.00;101999.53;6222458;28;20053;-77
2022/07/02 04:33:25;;;;;;;1.52;1.00;;;;;;;13.01;100.00;102007.91;6222790;28;20058;-78
2022/07/02 04:36:26;;;;;;;1.67;1.20;;;;;;;13.10;100.00;102004.00;6222519;28;20050;-78
2022/07/02 04:39:29;;;;;;;1.40;0.98;;;;;;;13.17;100.00;102008.06;6222253;28;20045;-78
2022/07/02 04:42:30;;;;;;;1.48;1.25;;;;;;;13.23;100.00;102013.13;6221865;28;20054;-77
2022/07/02 04:45:31;;;;;;;2.05;1.10;;;;;;;13.28;100.00;102010.28;6222543;28;20057;-78
2022/07/02 04:48:33;;;;;;;1.23;1.13;;;;;;;13.32;100.00;102012.72;6222401;28;20046;-78
2022/07/02 04:51:34;;;;;;;3.03;1.35;;;;;;;13.37;100.00;102008.09;6222414;28;20051;-78
2022/07/02 04:54:37;;;;;;;1.17;0.95;;;;;;;13.41;100.00;102020.22;6222560;28;20641;-78
2022/07/02 04:57:38;;;;;;;2.00;1.27;;;;;;;13.45;100.00;102010.41;6222145;28;20056;-78
2022/07/02 05:00:40;;;;;;;0.70;0.70;;;;;;;13.54;100.00;102024.97;6222098;28;20042;-77
2022/07/02 05:03:41;;;;;;;1.45;1.17;;;;;;;13.60;100.00;102020.25;6222201;28;20498;-79
2022/07/02 05:06:42;;;;;;;1.65;1.10;;;;;;;13.66;100.00;102021.75;6225460;28;20065;-78
2022/07/02 05:09:45;;;;;;;1.50;1.08;;;;;;;13.71;100.00;102017.09;6226761;28;20056;-77
2022/07/02 05:12:46;;;;;;;1.88;0.98;;;;;;;13.79;100.00;102020.25;6226897;28;20054;-78
2022/07/02 05:15:47;;;;;;;1.17;0.90;;;;;;;13.85;100.00;102022.63;6225747;28;20063;-77
2022/07/02 05:18:49;;;;;;;1.35;0.85;;;;;;;13.92;100.00;102031.13;6226557;28;20489;-77
2022/07/02 05:21:50;;;;;;;2.17;1.00;;;;;;;13.97;100.00;102023.84;6226525;28;20054;-77
2022/07/02 05:24:53;;;;;;;1.90;1.33;;;;;;;14.05;100.00;102026.13;6226138;28;20050;-77
2022/07/02 05:27:54;;;;;;;3.35;1.02;;;;;;;14.09;100.00;102022.41;6226764;28;20061;-77
2022/07/02 05:30:55;;;;;;;3.65;1.38;;;;;;;14.17;100.00;102034.34;6226627;28;20416;-78
2022/07/02 05:33:57;;;;;;;5.72;1.10;;;;;;;14.25;100.00;102027.81;6226598;28;20520;-78
2022/07/02 05:36:58;;;;;;;3.30;1.02;;;;;;;14.30;100.00;102028.44;6226320;28;20057;-77
2022/07/02 05:40:01;;;;;;;1.42;0.90;;;;;;;14.38;100.00;102026.28;6223980;28;20536;-77
2022/07/02 05:43:02;;;;;;;1.05;0.90;;;;;;;14.43;100.00;102034.84;6225670;28;20042;-78
2022/07/02 05:46:04;;;;;;;1.10;0.88;;;;;;;14.51;100.00;102045.94;6218665;28;20079;-77
2022/07/02 05:49:05;;;;;;;1.88;1.20;;;;;;;14.61;100.00;102041.91;6221477;28;20042;-77
2022/07/02 05:52:07;;;;;;;2.15;1.15;;;;;;;14.69;100.00;102041.53;6225735;28;20053;-76
2022/07/02 05:55:10;;;;;;;1.20;0.75;;;;;;;14.77;100.00;102046.47;6225637;28;20516;-77
2022/07/02 05:58:12;;;;;;;1.65;0.85;;;;;;;14.83;100.00;102057.56;6225753;28;20045;-76
2022/07/02 06:01:13;;;;;;;0.80;0.80;;;;;;;14.91;100.00;102051.91;6225743;28;20053;-77
2022/07/02 06:04:15;;;;;;;3.67;0.80;;;;;;;15.00;100.00;102054.09;6224132;28;20061;-77
2022/07/02 06:10:36;;;;;;;1.90;0.90;;;;;;;15.20;100.00;102045.97;6217290;28;20764;-77
2022/07/02 06:13:38;;;;;;;2.08;1.15;;;;;;;15.28;100.00;102050.00;6225349;28;20050;-77
2022/07/02 06:16:39;;;;;;;2.42;1.10;;;;;;;15.35;100.00;102046.09;6224036;28;20103;-76
2022/07/02 06:19:42;;;;;;;5.68;1.63;;;;;;;15.42;100.00;102043.03;6225137;28;20045;-77
2022/07/02 06:22:44;;;;;;;2.15;0.90;;;;;;;15.51;100.00;102040.84;6225256;28;20256;-77
2022/07/02 06:25:46;;;;;;;2.03;0.90;;;;;;;15.56;100.00;102044.09;6224508;28;20521;-77
2022/07/02 06:28:48;;;;;;;1.45;0.82;;;;;;;15.67;100.00;102045.28;6225159;28;20045;-77
2022/07/02 06:31:49;;;;;;;1.17;0.63;;;;;;;15.72;100.00;102045.91;6224848;28;20050;-78
2022/07/02 06:34:50;;;;;;;2.28;0.65;;;;;;;15.82;100.00;102050.69;6224824;28;20052;-76
2022/07/02 06:37:53;;;;;;;2.22;1.10;;;;;;;15.93;100.00;102046.50;6224779;28;20046;-77
2022/07/02 06:40:56;;;;;;;2.60;0.80;;;;;;;16.02;100.00;102049.59;6224603;28;20053;-77
2022/07/02 06:43:57;;;;;;;1.33;0.70;;;;;;;16.12;99.70;102050.78;6224548;28;20521;-76
2022/07/02 06:46:58;;;;;;;3.35;0.60;;;;;;;16.21;98.57;102053.81;6224773;28;20050;-77
2022/07/02 06:50:01;;;;;;;0.68;0.63;;;;;;;16.31;97.40;102056.78;6224441;28;20045;-78
2022/07/02 06:53:02;;;;;;;2.50;1.30;;;;;;;16.41;96.19;102055.31;6224814;28;20046;-77
2022/07/02 06:56:05;;;;;;;1.08;0.60;;;;;;;16.47;94.98;102060.25;6224258;28;20053;-78
2022/07/02 06:59:07;;;;;;;1.80;0.88;;;;;;;16.55;93.88;102059.84;6224271;28;20497;-77
2022/07/02 07:02:09;;;;;;;0.82;0.60;;;;;;;16.62;93.83;102070.94;6224276;28;20497;-77
2022/07/02 07:05:10;;;;;;;1.65;0.50;;;;;;;16.71;95.21;102071.28;6224059;28;20061;-77
2022/07/02 07:08:11;;;;;;;1.20;0.70;;;;;;;16.83;88.30;102074.19;6223954;28;20653;-77
2022/07/02 07:11:14;;;;;;;3.22;0.90;;;;;;;16.94;86.00;102063.78;6223962;28;20050;-77
2022/07/02 07:14:15;;;;;;;1.48;0.68;;;;;;;17.02;86.73;102060.69;6224185;28;20060;-77
2022/07/02 07:17:17;;;;;;;2.45;0.52;;;;;;;17.09;86.31;102062.03;6223981;28;20410;-77
2022/07/02 07:20:19;;;;;;;3.45;0.55;;;;;;;17.16;85.87;102074.84;6223969;28;20413;-78
2022/07/02 07:23:20;;;;;;;0.60;0.60;;;;;;;17.20;86.47;102080.84;6223996;28;20049;-77
2022/07/02 07:26:23;;;;;;;1.25;0.65;;;;;;;17.27;85.35;102090.16;6223655;28;20057;-75
2022/07/02 07:29:24;;;;;;;0.65;0.57;;;;;;;17.36;83.48;102073.66;6223334;28;20394;-74
2022/07/02 07:32:26;;;;;;;0.40;0.40;;;;;;;17.41;82.71;102076.03;6222022;28;20056;-77
2022/07/02 07:35:27;;;;;;;2.15;0.60;;;;;;;17.45;83.32;102074.91;6223163;28;20057;-77
2022/07/02 07:38:29;;;;;;;0.68;0.55;;;;;;;17.57;80.59;102078.59;6222380;28;20088;-77
2022/07/02 07:41:32;;;;;;;0.60;0.52;;;;;;;17.68;78.34;102070.84;6222463;28;20049;-77
2022/07/02 07:44:34;;;;;;;0.38;0.38;;;;;;;17.76;76.24;102073.91;6223312;28;20412;-78
2022/07/02 07:47:35;;;;;;;0.35;0.35;;;;;;;17.79;76.20;102067.53;6216121;28;20046;-79
2022/07/02 07:50:36;;;;;;;1.88;0.68;;;;;;;17.82;77.35;102075.31;6211631;28;20461;-79
2022/07/02 07:53:38;;;;;;;0.50;0.50;;;;;;;17.87;76.72;102070.56;6215470;28;20049;-76
2022/07/02 07:56:41;;;;;;;1.63;0.60;;;;;;;18.05;73.46;102082.69;6222686;28;20057;-78
2022/07/02 07:59:42;;;;;;;1.45;0.60;;;;;;;18.11;73.43;102081.44;6222414;28;20046;-78
2022/07/02 08:02:44;;;;;;;0.90;0.55;;;;;;;18.12;73.49;102083.16;6222558;28;20050;-78
2022/07/02 08:05:46;;;;;;;2.97;0.65;;;;;;;18.11;74.93;102090.28;6221065;28;20073;-78
2022/07/02 08:08:47;;;;;;;2.13;0.50;;;;;;;18.16;73.35;102088.19;6222073;28;20053;-77
2022/07/02 08:11:50;;;;;;;1.13;0.40;;;;;;;18.23;72.60;102092.16;6222182;28;20056;-78
2022/07/02 08:14:51;;;;;;;1.08;0.45;;;;;;;18.25;71.70;102086.75;6222711;28;20057;-77
2022/07/02 08:17:52;;;;;;;3.15;0.70;;;;;;;18.29;73.05;102087.41;6222740;28;20413;-78
2022/07/02 08:20:54;;;;;;;1.02;0.60;;;;;;;18.44;72.89;102086.41;6222774;28;20049;-77
2022/07/02 08:23:55;;;;;;;1.48;0.57;;;;;;;18.57;72.06;102079.31;6222633;28;20056;-78
2022/07/02 08:26:58;;;;;;;0.70;0.57;;;;;;;18.71;71.44;102074.00;6222326;28;20053;-76
2022/07/02 08:29:59;;;;;;;0.57;0.30;;;;;;;18.85;69.03;102080.19;6222467;28;20052;-77
2022/07/02 08:33:01;;;;;;;1.25;0.70;;;;;;;18.87;69.96;102065.81;6222726;28;20085;-76
2022/07/02 08:36:02;;;;;;;0.57;0.50;;;;;;;18.97;67.98;102071.38;6222394;28;20422;-76
2022/07/02 08:39:03;;;;;;;0.60;0.50;;;;;;;19.05;66.51;102065.53;6222086;28;20410;-75
2022/07/02 08:42:09;;;;;;;0.77;0.60;;;;;;;19.14;66.57;102068.41;6221629;28;20050;-75
2022/07/02 08:45:12;;;;;;;0.65;0.47;;;;;;;19.16;66.80;102057.66;6222413;28;20494;-77
2022/07/02 08:48:14;;;;;;;1.00;0.40;;;;;;;19.25;67.16;102068.53;6222556;28;20057;-76
2022/07/02 08:51:15;;;;;;;0.50;0.40;;;;;;;19.28;67.12;102056.81;6222230;28;20057;-77
2022/07/02 08:54:18;;;;;;;0.82;0.40;;;;;;;19.30;67.44;102054.03;6221605;28;20575;-76
2022/07/02 08:57:22;;;;;;;0.50;0.40;;;;;;;19.35;65.56;102055.44;6222293;28;20065;-76
2022/07/02 09:00:24;;;;;;;1.00;0.40;;;;;;;19.48;62.35;102056.28;6221766;28;20046;-77
2022/07/02 09:03:26;;;;;;;0.65;0.43;;;;;;;19.44;63.73;102051.25;6222397;28;20049;-77
2022/07/02 09:06:29;;;;;;;1.80;0.77;;;;;;;19.52;64.01;102051.56;6222049;28;20057;-76
2022/07/02 09:09:31;;;;;;;0.63;0.50;;;;;;;19.65;61.51;102059.59;6222443;28;20052;-77
2022/07/02 09:12:34;;;;;;;0.93;0.55;;;;;;;19.63;62.49;102045.53;6221823;28;20046;-77
2022/07/02 09:15:36;;;;;;;1.75;0.47;;;;;;;19.76;61.77;102047.22;6222059;28;20053;-76
2022/07/02 09:18:38;;;;;;;0.57;0.38;;;;;;;19.89;60.21;102046.31;6222063;28;20152;-76
2022/07/02 09:21:43;;;;;;;0.77;0.40;;;;;;;19.84;56.22;102033.31;6221992;28;20050;-77
2022/07/02 09:24:44;;;;;;;1.17;0.68;;;;;;;19.72;57.97;102032.41;6221667;28;20054;-77
2022/07/02 09:27:48;;;;;;;0.38;0.38;;;;;;;19.66;58.26;102024.81;6221885;28;20424;-77
2022/07/02 09:30:50;;;;;;;0.63;0.50;;;;;;;19.66;60.01;102022.13;6221388;28;20413;-77
2022/07/02 09:33:51;;;;;;;3.10;0.40;;;;;;;19.83;59.71;102020.94;6221892;28;20054;-77
2022/07/02 09:36:53;;;;;;;4.03;0.57;;;;;;;20.08;58.18;102017.34;6221714;28;20054;-77
2022/07/02 09:39:57;;;;;;;3.38;0.60;;;;;;;20.18;56.97;102015.72;6221620;28;20057;-76
2022/07/02 09:42:59;;;;;;;2.38;0.65;;;;;;;20.25;56.97;102003.59;6221865;28;20042;-77
2022/07/02 09:46:02;;;;;;;0.70;0.45;;;;;;;20.38;56.75;102011.53;6221666;28;20057;-76
2022/07/02 09:49:07;;;;;;;0.40;0.30;;;;;;;20.42;55.54;102004.16;6221661;28;20050;-77
2022/07/02 09:52:15;;;;;;;1.23;0.47;;;;;;;20.39;56.97;102002.56;6223675;28;20045;-77
2022/07/02 09:55:21;;;;;;;4.45;1.15;;;;;;;20.40;55.73;102006.13;6225811;28;20050;-77
2022/07/02 09:58:28;;;;;;;3.00;0.57;;;;;;;20.51;54.22;101993.66;6225913;28;20068;-76
2022/07/02 10:01:30;;;;;;;1.70;0.40;;;;;;;20.44;51.80;101995.09;6225566;28;20046;-78
2022/07/02 10:04:33;;;;;;;0.50;0.50;;;;;;;20.41;54.59;101994.47;6225581;28;20050;-76
2022/07/02 10:07:34;;;;;;;3.10;0.57;;;;;;;20.32;54.50;101992.47;6225755;28;20058;-76
2022/07/02 10:10:39;;;;;;;2.42;0.60;;;;;;;20.15;56.83;101999.06;6225746;28;20046;-76
2022/07/02 10:13:42;;;;;;;1.30;0.60;;;;;;;20.08;56.76;101992.50;6225974;28;20050;-76
2022/07/02 10:16:44;;;;;;;1.60;0.60;;;;;;;20.29;56.54;102001.56;6225389;28;20050;-76
2022/07/02 10:19:45;;;;;;;2.03;0.43;;;;;;;20.44;55.48;101992.41;6225386;28;20501;-77
2022/07/02 10:22:47;;;;;;;0.75;0.45;;;;;;;20.65;57.61;101981.09;6225334;28;20049;-77
2022/07/02 10:25:50;;;;;;;0.50;0.40;;;;;;;20.82;55.89;101993.16;6225228;28;20060;-76
2022/07/02 10:28:54;;;;;;;1.98;0.55;;;;;;;20.80;54.51;101982.56;6225230;28;20045;-76
2022/07/02 10:32:02;;;;;;;2.60;0.73;;;;;;;20.64;53.94;101979.41;6224800;28;20399;-76
2022/07/02 10:35:10;;;;;;;1.38;0.70;;;;;;;20.80;55.37;101971.88;6224902;28;20050;-76
2022/07/02 10:38:11;;;;;;;0.68;0.50;;;;;;;21.18;55.72;101968.91;6225176;28;20058;-76
2022/07/02 10:41:13;;;;;;;1.05;0.52;;;;;;;21.22;53.42;101970.38;6224765;28;20049;-76
2022/07/02 10:44:16;;;;;;;0.40;0.40;;;;;;;21.42;56.19;101970.66;6224911;28;20058;-76
2022/07/02 10:47:18;;;;;;;0.80;0.70;;;;;;;21.73;54.92;101963.69;6225083;28;20054;-76
2022/07/02 10:50:20;;;;;;;0.50;0.50;;;;;;;22.14;56.80;101962.16;6224503;28;20050;-76
2022/07/02 10:53:24;;;;;;;2.25;0.52;;;;;;;22.02;51.66;101970.16;6224793;28;20056;-76
2022/07/02 10:56:25;;;;;;;0.40;0.40;;;;;;;21.56;53.85;101975.75;6224272;28;20054;-76
2022/07/02 10:59:35;;;;;;;0.52;0.52;;;;;;;21.35;55.58;101975.66;6224208;28;20054;-77
2022/07/02 11:02:37;;;;;;;1.05;0.50;;;;;;;21.41;52.08;101964.47;6223767;28;20050;-76
2022/07/02 11:05:55;;;;;;;0.40;0.40;;;;;;;21.41;50.90;101975.16;6224187;28;20050;-77
2022/07/02 11:08:58;;;;;;;1.40;0.60;;;;;;;21.46;49.71;101969.44;6224601;28;20060;-76
2022/07/02 11:12:01;;;;;;;1.13;0.65;;;;;;;21.28;50.13;101959.19;6224067;28;20410;-76
2022/07/02 11:15:04;;;;;;;0.40;0.40;;;;;;;21.09;49.86;101964.31;6224040;28;20057;-76
2022/07/02 11:18:07;;;;;;;4.50;0.40;;;;;;;21.12;50.67;101961.41;6224135;28;20054;-77
2022/07/02 11:21:12;;;;;;;0.75;0.50;;;;;;;21.06;51.24;101958.34;6223753;28;20062;-77
2022/07/02 11:24:16;;;;;;;0.65;0.47;;;;;;;20.92;51.95;101952.25;6223840;28;20452;-76
2022/07/02 11:27:17;;;;;;;1.65;0.60;;;;;;;21.37;52.07;101952.31;6223688;28;20042;-77
2022/07/02 11:30:26;;;;;;;0.63;0.47;;;;;;;21.93;50.39;101946.84;6223528;28;20493;-76
2022/07/02 11:33:27;;;;;;;0.83;0.60;;;;;;;21.75;52.01;101943.84;6223869;28;20425;-77
2022/07/02 11:36:30;;;;;;;2.00;0.60;;;;;;;21.50;51.16;101930.78;6223580;28;20296;-76
2022/07/02 11:39:31;;;;;;;2.03;0.45;;;;;;;21.39;51.31;101945.03;6223531;28;20057;-77
2022/07/02 11:42:37;;;;;;;0.47;0.47;;;;;;;22.20;48.50;101924.13;6223523;28;20135;-76
2022/07/02 11:45:43;;;;;;;0.75;0.43;;;;;;;23.18;48.29;101915.75;6223285;28;20049;-77
2022/07/02 11:48:46;;;;;;;0.40;0.40;;;;;;;23.83;45.50;101913.53;6223735;28;20053;-75
2022/07/02 11:51:49;;;;;;;0.43;0.40;;;;;;;23.75;44.18;101909.72;6223471;28;20041;-78
2022/07/02 11:54:50;;;;;;;2.40;1.05;;;;;;;23.67;44.99;101914.94;6222931;28;20061;-75
2022/07/02 11:57:52;;;;;;;0.63;0.50;;;;;;;24.18;44.19;101912.97;6223613;28;20054;-78
2022/07/02 12:00:55;;;;;;;0.45;0.30;;;;;;;24.80;44.22;101906.25;6222850;28;20663;-76
2022/07/02 12:03:58;;;;;;;0.45;0.45;;;;;;;25.34;43.56;101907.31;6222857;28;20421;-77
2022/07/02 12:07:00;;;;;;;0.50;0.50;;;;;;;25.71;40.77;101906.41;6222817;28;20060;-76
2022/07/02 12:10:03;;;;;;;0.52;0.30;;;;;;;26.03;40.32;101904.03;6223212;28;20054;-76
2022/07/02 12:13:08;;;;;;;2.58;0.50;;;;;;;26.20;41.93;101891.53;6222844;28;20046;-77
2022/07/02 12:16:17;;;;;;;0.35;0.30;;;;;;;26.22;39.13;101897.63;6221641;28;20049;-76
2022/07/02 12:19:19;;;;;;;0.85;0.57;;;;;;;26.05;38.23;101882.31;6222699;28;20054;-77
2022/07/02 12:22:24;;;;;;;0.50;0.45;;;;;;;26.14;38.27;101883.25;6222590;28;20041;-76
2022/07/02 12:25:25;;;;;;;0.43;0.43;;;;;;;26.36;38.66;101882.75;6222411;28;20049;-77
2022/07/02 12:31:50;;;;;;;0.40;0.40;;;;;;;24.70;39.71;101862.41;6222527;28;20058;-77
2022/07/02 12:34:53;;;;;;;1.00;0.52;;;;;;;24.25;42.34;101871.09;6222597;28;20054;-77
2022/07/02 12:37:58;;;;;;;2.35;0.43;;;;;;;23.83;42.89;101871.41;6222469;28;20449;-76
2022/07/02 12:41:00;;;;;;;0.57;0.35;;;;;;;23.52;44.12;101868.81;6222801;28;20449;-77
2022/07/02 12:44:01;;;;;;;0.75;0.65;;;;;;;24.32;42.85;101874.91;6222186;28;20132;-77
2022/07/02 12:47:04;;;;;;;0.55;0.38;;;;;;;25.32;42.00;101870.78;6222182;28;20429;-77
2022/07/02 12:50:13;;;;;;;1.13;0.40;;;;;;;25.90;38.69;101862.34;6222195;28;20060;-78
2022/07/02 12:53:17;;;;;;;0.40;0.40;;;;;;;26.33;41.48;101852.56;6222418;28;20057;-76
2022/07/02 12:56:18;;;;;;;1.02;0.50;;;;;;;26.69;38.33;101842.53;6221982;28;20046;-77
2022/07/02 12:59:19;;;;;;;0.82;0.32;;;;;;;26.93;36.35;101837.25;6222272;28;20054;-78
2022/07/02 13:02:27;;;;;;;0.95;0.50;;;;;;;27.05;37.46;101835.09;6222315;28;20057;-77
2022/07/02 13:05:30;;;;;;;3.00;0.60;;;;;;;26.99;38.11;101831.22;6221882;28;20058;-77
2022/07/02 13:08:31;;;;;;;1.30;0.60;;;;;;;26.89;37.20;101821.53;6222383;28;20050;-77
2022/07/02 13:11:33;;;;;;;0.40;0.40;;;;;;;27.03;36.88;101823.66;6221870;28;20712;-77
2022/07/02 13:14:34;;;;;;;1.17;0.50;;;;;;;27.29;37.04;101827.09;6222306;28;20053;-77
2022/07/02 13:17:37;;;;;;;1.23;0.70;;;;;;;27.61;35.20;101836.28;6221860;28;20533;-77
2022/07/02 13:20:41;;;;;;;0.35;0.30;;;;;;;27.67;35.95;101813.16;6222051;28;20505;-77
2022/07/02 13:23:42;;;;;;;0.52;0.50;;;;;;;27.23;36.66;101814.28;6221050;28;20056;-73
2022/07/02 13:26:43;;;;;;;1.60;0.75;;;;;;;27.08;35.41;101809.66;6223143;28;20501;-76
2022/07/02 13:29:44;;;;;;;0.63;0.57;;;;;;;26.32;36.06;101805.91;6226199;28;20042;-77
2022/07/02 13:32:48;;;;;;;1.02;0.85;;;;;;;26.08;37.90;101808.44;6226485;28;20552;-76
2022/07/02 13:35:49;;;;;;;0.90;0.65;;;;;;;26.50;37.92;101803.16;6226384;28;20061;-76
2022/07/02 13:38:50;;;;;;;0.50;0.45;;;;;;;26.70;38.91;101791.13;6226395;28;20520;-75
2022/07/02 13:41:53;;;;;;;0.63;0.50;;;;;;;26.90;35.62;101804.38;6225955;28;20053;-76
2022/07/02 13:44:54;;;;;;;0.52;0.32;;;;;;;27.37;36.00;101799.28;6226014;28;20056;-76
2022/07/02 13:47:56;;;;;;;0.73;0.50;;;;;;;27.75;35.12;101792.44;6225139;28;20120;-77
2022/07/02 13:50:58;;;;;;;1.77;0.80;;;;;;;27.73;34.14;101788.22;6221985;28;20052;-76
2022/07/02 13:53:59;;;;;;;0.60;0.40;;;;;;;27.97;34.56;101792.75;6224595;28;20050;-76
2022/07/02 13:57:01;;;;;;;0.47;0.40;;;;;;;27.77;33.91;101787.69;6224225;28;20050;-76
2022/07/02 14:00:04;;;;;;;0.45;0.30;;;;;;;27.42;32.91;101782.59;6224288;28;20053;-76
2022/07/02 14:03:07;;;;;;;0.40;0.30;;;;;;;27.04;34.92;101779.44;6224296;28;20041;-76
2022/07/02 14:06:08;;;;;;;0.30;0.25;;;;;;;26.91;34.17;101785.31;6224002;28;20053;-76
2022/07/02 14:09:10;;;;;;;0.50;0.50;;;;;;;26.21;34.96;101785.47;6224266;28;20053;-76
2022/07/02 14:12:11;;;;;;;0.63;0.40;;;;;;;26.29;36.81;101776.56;6224720;28;20053;-76
2022/07/02 14:15:13;;;;;;;0.60;0.60;;;;;;;26.45;36.04;101783.94;6223740;28;20053;-77